Jump to content

  •  

HORIZON AIRLINES FLIGHT QX2461 FLOWN ON 01-06-2018 BY CAPTAIN TYLER HANUS

Pilot StatsCaptain Tyler Hanus (LDP525) • 294.2 total hours • 82 total flights [View Logbook]
FLIGHT DETAILS
StatusReceived and approved on 2018-01-05 at 23:01:28
Origin AirportSeattle-Tacoma Intl (KSEA) • Seattle, Washington, United States (433 feet MSL)
Filed Flight PlanKSEA ALDER J1 OED KMFR
Destination AirportRogue Valley Intl-Medford (KMFR) • Medford, Oregon, United States (1,335 feet MSL)
Alternate AirportOakridge State (5S0) • Oakridge, Oregon, United States (1,393 feet MSL)
AirlineHorizon Airlines
AircraftDe Havilland DHC-8-400 Dash 8/8Q (DH4 / DHC-8-400)
FS Aircraft UsedMJC8Q400_QXE
Cruising AltitudeFL230
Distance Flown306 nautical miles
Passengers Onboard28 passengers (40.00% full)
DEPARTURE DETAILS
Time Out18:14:57
Taxi Data55,312 lbs total with 7,179 lbs of fuel onboard
Takeoff Data18:29:34 (15 minutes after leaving gate/ramp) • 55,085 lbs total • 19° pitch at 130 knots
Departure METARKSEA 060053Z 12006KT 9SM -RA SCT045 OVC050 11/08 A2999 RMK AO2 RAB19 SLP161 P0002 T01060083
ARRIVAL DETAILS
Landing Data20:19:56 • 51,749 lbs total • 19° pitch doing 115 knots at a rate of -577.48 feet/minute with 3,475 lbs of fuel onboard
Time In20:28:46 (9 minutes after landing)
Ramp Weight51,608 lbs total
Total Fuel Used3,704 lbs
Total Block Time02:05:11 (2.1 hours) while 23 minutes were spent on the ground
Arrival METARKMFR 060353Z 12004KT 10SM SCT080 09/06 A3019 RMK AO2 SLP225 T00940056
MISCELLANEOUS DETAILS
LiveDISPATCH Version4.8.3.1
FS Version
FSUIPC Version4.97
OS VersionWindows 7 32-bit
Screen Resolution1360 x 768
Pilot's CommentsNo Comments Reported
FLIGHT MAP